sensor_id;sensor_type;location;lat;lon;timestamp;P1;durP1;ratioP1;P2;durP2;ratioP2
11422;SDS011;5768;51.476;7.210;2023-06-26T00:02:28;5.78;;;5.28;;
11422;SDS011;5768;51.476;7.210;2023-06-26T00:07:32;6.22;;;5.65;;
11422;SDS011;5768;51.476;7.210;2023-06-26T00:12:36;6.05;;;5.55;;
11422;SDS011;5768;51.476;7.210;2023-06-26T00:17:38;6.03;;;5.53;;
11422;SDS011;5768;51.476;7.210;2023-06-26T00:22:41;6.03;;;5.53;;
11422;SDS011;5768;51.476;7.210;2023-06-26T00:27:46;5.40;;;4.90;;
11422;SDS011;5768;51.476;7.210;2023-06-26T00:32:48;5.93;;;5.18;;
11422;SDS011;5768;51.476;7.210;2023-06-26T00:37:50;5.60;;;5.10;;
11422;SDS011;5768;51.476;7.210;2023-06-26T00:42:54;6.43;;;5.78;;
11422;SDS011;5768;51.476;7.210;2023-06-26T00:47:56;6.55;;;5.95;;
11422;SDS011;5768;51.476;7.210;2023-06-26T00:52:59;5.72;;;5.20;;
11422;SDS011;5768;51.476;7.210;2023-06-26T00:58:03;5.82;;;5.32;;
11422;SDS011;5768;51.476;7.210;2023-06-26T01:03:06;6.40;;;5.75;;
11422;SDS011;5768;51.476;7.210;2023-06-26T01:08:08;5.75;;;5.25;;
11422;SDS011;5768;51.476;7.210;2023-06-26T01:13:13;8.38;;;5.50;;
11422;SDS011;5768;51.476;7.210;2023-06-26T01:18:17;6.05;;;5.45;;
11422;SDS011;5768;51.476;7.210;2023-06-26T01:23:20;5.85;;;5.35;;
11422;SDS011;5768;51.476;7.210;2023-06-26T01:28:34;5.55;;;5.05;;
11422;SDS011;5768;51.476;7.210;2023-06-26T01:33:41;5.75;;;5.25;;
11422;SDS011;5768;51.476;7.210;2023-06-26T01:38:44;5.47;;;5.05;;
11422;SDS011;5768;51.476;7.210;2023-06-26T01:43:54;5.90;;;5.40;;
11422;SDS011;5768;51.476;7.210;2023-06-26T01:49:14;6.18;;;5.68;;
11422;SDS011;5768;51.476;7.210;2023-06-26T01:54:29;5.85;;;5.35;;
11422;SDS011;5768;51.476;7.210;2023-06-26T01:59:39;5.90;;;5.40;;
11422;SDS011;5768;51.476;7.210;2023-06-26T02:04:43;6.10;;;5.50;;
11422;SDS011;5768;51.476;7.210;2023-06-26T02:09:48;5.68;;;5.18;;
11422;SDS011;5768;51.476;7.210;2023-06-26T02:14:51;5.82;;;5.32;;
11422;SDS011;5768;51.476;7.210;2023-06-26T02:19:54;7.88;;;5.80;;
11422;SDS011;5768;51.476;7.210;2023-06-26T02:24:56;5.93;;;5.32;;
11422;SDS011;5768;51.476;7.210;2023-06-26T02:29:59;6.28;;;5.78;;
11422;SDS011;5768;51.476;7.210;2023-06-26T02:35:02;6.03;;;5.53;;
11422;SDS011;5768;51.476;7.210;2023-06-26T02:40:05;5.97;;;5.45;;
11422;SDS011;5768;51.476;7.210;2023-06-26T02:45:10;5.75;;;5.25;;
11422;SDS011;5768;51.476;7.210;2023-06-26T02:50:13;5.65;;;5.15;;
11422;SDS011;5768;51.476;7.210;2023-06-26T02:55:17;6.28;;;5.72;;
11422;SDS011;5768;51.476;7.210;2023-06-26T03:00:22;5.97;;;5.38;;
11422;SDS011;5768;51.476;7.210;2023-06-26T03:05:25;5.97;;;5.53;;
11422;SDS011;5768;51.476;7.210;2023-06-26T03:10:27;6.40;;;5.25;;
11422;SDS011;5768;51.476;7.210;2023-06-26T03:15:31;5.90;;;5.40;;
11422;SDS011;5768;51.476;7.210;2023-06-26T03:20:33;5.45;;;5.03;;
11422;SDS011;5768;51.476;7.210;2023-06-26T03:25:35;6.95;;;5.53;;
11422;SDS011;5768;51.476;7.210;2023-06-26T03:30:39;6.68;;;5.60;;
11422;SDS011;5768;51.476;7.210;2023-06-26T03:35:41;6.93;;;5.97;;
11422;SDS011;5768;51.476;7.210;2023-06-26T03:40:44;6.65;;;6.07;;
11422;SDS011;5768;51.476;7.210;2023-06-26T03:45:47;6.70;;;5.90;;
11422;SDS011;5768;51.476;7.210;2023-06-26T03:50:50;6.53;;;5.82;;
11422;SDS011;5768;51.476;7.210;2023-06-26T03:55:53;6.03;;;5.45;;
11422;SDS011;5768;51.476;7.210;2023-06-26T04:00:57;8.10;;;6.40;;
11422;SDS011;5768;51.476;7.210;2023-06-26T04:05:59;6.32;;;5.72;;
11422;SDS011;5768;51.476;7.210;2023-06-26T04:11:01;6.30;;;5.70;;
11422;SDS011;5768;51.476;7.210;2023-06-26T04:16:05;8.27;;;5.57;;
11422;SDS011;5768;51.476;7.210;2023-06-26T04:21:08;6.53;;;5.90;;
11422;SDS011;5768;51.476;7.210;2023-06-26T04:26:13;7.20;;;5.70;;
11422;SDS011;5768;51.476;7.210;2023-06-26T04:31:17;8.32;;;6.07;;
11422;SDS011;5768;51.476;7.210;2023-06-26T04:36:19;7.03;;;5.88;;
11422;SDS011;5768;51.476;7.210;2023-06-26T04:41:21;6.10;;;5.50;;
11422;SDS011;5768;51.476;7.210;2023-06-26T04:46:25;8.05;;;5.63;;
11422;SDS011;5768;51.476;7.210;2023-06-26T04:51:28;6.03;;;5.43;;
11422;SDS011;5768;51.476;7.210;2023-06-26T04:56:30;5.80;;;5.30;;
11422;SDS011;5768;51.476;7.210;2023-06-26T05:01:33;6.18;;;5.63;;
11422;SDS011;5768;51.476;7.210;2023-06-26T05:06:39;7.25;;;5.65;;
11422;SDS011;5768;51.476;7.210;2023-06-26T05:11:42;9.73;;;5.68;;
11422;SDS011;5768;51.476;7.210;2023-06-26T05:16:45;6.53;;;5.03;;
11422;SDS011;5768;51.476;7.210;2023-06-26T05:21:47;8.68;;;5.45;;
11422;SDS011;5768;51.476;7.210;2023-06-26T05:26:52;6.20;;;5.00;;
11422;SDS011;5768;51.476;7.210;2023-06-26T05:31:56;7.68;;;6.03;;
11422;SDS011;5768;51.476;7.210;2023-06-26T05:36:59;6.90;;;5.60;;
11422;SDS011;5768;51.476;7.210;2023-06-26T05:42:04;6.53;;;5.93;;
11422;SDS011;5768;51.476;7.210;2023-06-26T05:47:09;9.10;;;6.30;;
11422;SDS011;5768;51.476;7.210;2023-06-26T05:52:12;6.85;;;5.93;;
11422;SDS011;5768;51.476;7.210;2023-06-26T05:57:15;7.68;;;6.82;;
11422;SDS011;5768;51.476;7.210;2023-06-26T06:02:19;9.18;;;6.85;;
11422;SDS011;5768;51.476;7.210;2023-06-26T06:07:21;6.47;;;5.88;;
11422;SDS011;5768;51.476;7.210;2023-06-26T06:12:23;6.90;;;5.60;;
11422;SDS011;5768;51.476;7.210;2023-06-26T06:17:27;7.35;;;5.20;;
11422;SDS011;5768;51.476;7.210;2023-06-26T06:22:29;6.53;;;5.82;;
11422;SDS011;5768;51.476;7.210;2023-06-26T06:27:31;6.30;;;5.70;;
11422;SDS011;5768;51.476;7.210;2023-06-26T06:32:35;5.43;;;4.13;;
11422;SDS011;5768;51.476;7.210;2023-06-26T06:37:37;7.55;;;5.22;;
11422;SDS011;5768;51.476;7.210;2023-06-26T06:42:40;6.50;;;4.78;;
11422;SDS011;5768;51.476;7.210;2023-06-26T06:47:43;11.25;;;5.40;;
11422;SDS011;5768;51.476;7.210;2023-06-26T06:52:45;7.43;;;5.45;;
11422;SDS011;5768;51.476;7.210;2023-06-26T06:57:48;7.82;;;5.00;;
11422;SDS011;5768;51.476;7.210;2023-06-26T07:02:52;7.18;;;5.85;;
11422;SDS011;5768;51.476;7.210;2023-06-26T07:07:56;9.20;;;5.30;;
11422;SDS011;5768;51.476;7.210;2023-06-26T07:12:58;8.52;;;5.40;;
11422;SDS011;5768;51.476;7.210;2023-06-26T07:18:02;8.25;;;5.10;;
11422;SDS011;5768;51.476;7.210;2023-06-26T07:23:04;10.40;;;5.55;;
11422;SDS011;5768;51.476;7.210;2023-06-26T07:28:09;6.78;;;5.78;;
11422;SDS011;5768;51.476;7.210;2023-06-26T07:33:13;10.43;;;5.75;;
11422;SDS011;5768;51.476;7.210;2023-06-26T07:38:16;8.82;;;6.20;;
11422;SDS011;5768;51.476;7.210;2023-06-26T07:43:18;8.80;;;5.40;;
11422;SDS011;5768;51.476;7.210;2023-06-26T07:48:21;8.23;;;5.70;;
11422;SDS011;5768;51.476;7.210;2023-06-26T07:53:24;9.88;;;5.82;;
11422;SDS011;5768;51.476;7.210;2023-06-26T07:58:26;11.18;;;5.97;;
11422;SDS011;5768;51.476;7.210;2023-06-26T08:03:29;9.10;;;5.38;;
11422;SDS011;5768;51.476;7.210;2023-06-26T08:08:32;9.02;;;5.55;;
11422;SDS011;5768;51.476;7.210;2023-06-26T08:13:34;9.63;;;5.90;;
11422;SDS011;5768;51.476;7.210;2023-06-26T08:18:37;12.55;;;6.13;;
11422;SDS011;5768;51.476;7.210;2023-06-26T08:23:39;12.30;;;6.20;;
11422;SDS011;5768;51.476;7.210;2023-06-26T08:28:42;9.65;;;6.45;;
11422;SDS011;5768;51.476;7.210;2023-06-26T08:33:45;12.32;;;7.07;;
11422;SDS011;5768;51.476;7.210;2023-06-26T08:38:47;9.57;;;7.22;;
11422;SDS011;5768;51.476;7.210;2023-06-26T08:43:50;17.52;;;9.05;;
11422;SDS011;5768;51.476;7.210;2023-06-26T08:48:55;13.80;;;9.50;;
11422;SDS011;5768;51.476;7.210;2023-06-26T08:54:02;14.23;;;7.78;;
11422;SDS011;5768;51.476;7.210;2023-06-26T08:59:11;11.07;;;8.13;;
11422;SDS011;5768;51.476;7.210;2023-06-26T09:04:15;10.00;;;8.98;;
11422;SDS011;5768;51.476;7.210;2023-06-26T09:09:17;8.05;;;7.22;;
11422;SDS011;5768;51.476;7.210;2023-06-26T09:14:21;12.70;;;7.75;;
11422;SDS011;5768;51.476;7.210;2023-06-26T09:19:25;11.55;;;7.25;;
11422;SDS011;5768;51.476;7.210;2023-06-26T09:24:28;10.70;;;6.88;;
11422;SDS011;5768;51.476;7.210;2023-06-26T09:29:32;9.70;;;7.10;;
11422;SDS011;5768;51.476;7.210;2023-06-26T09:34:36;11.40;;;5.97;;
11422;SDS011;5768;51.476;7.210;2023-06-26T09:39:43;6.40;;;4.10;;
11422;SDS011;5768;51.476;7.210;2023-06-26T09:44:45;7.47;;;4.45;;
11422;SDS011;5768;51.476;7.210;2023-06-26T09:49:50;7.60;;;4.80;;
11422;SDS011;5768;51.476;7.210;2023-06-26T09:55:06;7.05;;;5.25;;
11422;SDS011;5768;51.476;7.210;2023-06-26T10:00:10;8.82;;;5.13;;
11422;SDS011;5768;51.476;7.210;2023-06-26T10:05:15;5.88;;;4.82;;
11422;SDS011;5768;51.476;7.210;2023-06-26T10:10:18;7.75;;;4.80;;
11422;SDS011;5768;51.476;7.210;2023-06-26T10:15:23;7.95;;;4.35;;
11422;SDS011;5768;51.476;7.210;2023-06-26T10:20:30;9.88;;;5.07;;
11422;SDS011;5768;51.476;7.210;2023-06-26T10:25:34;9.63;;;4.95;;
11422;SDS011;5768;51.476;7.210;2023-06-26T10:30:43;8.63;;;4.07;;
11422;SDS011;5768;51.476;7.210;2023-06-26T10:35:50;4.65;;;2.75;;
11422;SDS011;5768;51.476;7.210;2023-06-26T10:40:53;7.65;;;3.75;;
11422;SDS011;5768;51.476;7.210;2023-06-26T10:45:55;6.57;;;3.38;;
11422;SDS011;5768;51.476;7.210;2023-06-26T10:50:58;4.57;;;3.50;;
11422;SDS011;5768;51.476;7.210;2023-06-26T10:56:15;6.88;;;2.95;;
11422;SDS011;5768;51.476;7.210;2023-06-26T11:01:18;3.47;;;2.25;;
11422;SDS011;5768;51.476;7.210;2023-06-26T11:06:24;6.80;;;2.85;;
11422;SDS011;5768;51.476;7.210;2023-06-26T11:17:05;5.43;;;3.33;;
11422;SDS011;5768;51.476;7.210;2023-06-26T11:22:08;4.70;;;3.40;;
11422;SDS011;5768;51.476;7.210;2023-06-26T11:27:11;4.78;;;3.00;;
11422;SDS011;5768;51.476;7.210;2023-06-26T11:32:14;9.13;;;3.15;;
11422;SDS011;5768;51.476;7.210;2023-06-26T11:37:19;4.22;;;2.88;;
11422;SDS011;5768;51.476;7.210;2023-06-26T11:42:23;5.07;;;2.40;;
11422;SDS011;5768;51.476;7.210;2023-06-26T11:47:26;7.40;;;2.40;;
11422;SDS011;5768;51.476;7.210;2023-06-26T11:52:30;3.25;;;2.00;;
11422;SDS011;5768;51.476;7.210;2023-06-26T11:57:34;4.57;;;2.40;;
11422;SDS011;5768;51.476;7.210;2023-06-26T12:02:37;4.68;;;1.80;;
11422;SDS011;5768;51.476;7.210;2023-06-26T12:07:41;2.67;;;1.83;;
11422;SDS011;5768;51.476;7.210;2023-06-26T12:12:46;6.68;;;1.83;;
11422;SDS011;5768;51.476;7.210;2023-06-26T12:17:48;4.50;;;1.80;;
11422;SDS011;5768;51.476;7.210;2023-06-26T12:22:52;3.55;;;1.90;;
11422;SDS011;5768;51.476;7.210;2023-06-26T12:27:54;5.28;;;1.92;;
11422;SDS011;5768;51.476;7.210;2023-06-26T12:32:57;1.92;;;1.48;;
11422;SDS011;5768;51.476;7.210;2023-06-26T12:38:00;2.22;;;1.70;;
11422;SDS011;5768;51.476;7.210;2023-06-26T12:43:02;3.97;;;1.50;;
11422;SDS011;5768;51.476;7.210;2023-06-26T12:48:08;3.42;;;1.40;;
11422;SDS011;5768;51.476;7.210;2023-06-26T12:53:14;6.10;;;1.50;;
11422;SDS011;5768;51.476;7.210;2023-06-26T12:58:16;3.17;;;1.40;;
11422;SDS011;5768;51.476;7.210;2023-06-26T13:03:18;3.55;;;1.70;;
11422;SDS011;5768;51.476;7.210;2023-06-26T13:08:23;3.25;;;1.50;;
11422;SDS011;5768;51.476;7.210;2023-06-26T13:13:25;2.42;;;1.20;;
11422;SDS011;5768;51.476;7.210;2023-06-26T13:18:27;2.10;;;1.40;;
11422;SDS011;5768;51.476;7.210;2023-06-26T13:23:31;2.50;;;1.50;;
11422;SDS011;5768;51.476;7.210;2023-06-26T13:28:33;1.63;;;1.20;;
11422;SDS011;5768;51.476;7.210;2023-06-26T13:33:35;3.05;;;1.30;;
11422;SDS011;5768;51.476;7.210;2023-06-26T13:38:39;3.28;;;1.17;;
11422;SDS011;5768;51.476;7.210;2023-06-26T13:43:41;3.05;;;1.35;;
11422;SDS011;5768;51.476;7.210;2023-06-26T13:48:43;3.67;;;1.30;;
11422;SDS011;5768;51.476;7.210;2023-06-26T13:53:47;2.88;;;1.17;;
11422;SDS011;5768;51.476;7.210;2023-06-26T13:58:49;2.92;;;1.35;;
11422;SDS011;5768;51.476;7.210;2023-06-26T14:03:51;1.67;;;1.20;;
11422;SDS011;5768;51.476;7.210;2023-06-26T14:08:55;3.63;;;1.27;;
11422;SDS011;5768;51.476;7.210;2023-06-26T14:13:57;1.95;;;1.25;;
11422;SDS011;5768;51.476;7.210;2023-06-26T14:18:59;2.38;;;1.50;;
11422;SDS011;5768;51.476;7.210;2023-06-26T14:24:03;2.25;;;1.58;;
11422;SDS011;5768;51.476;7.210;2023-06-26T14:29:06;1.60;;;0.95;;
11422;SDS011;5768;51.476;7.210;2023-06-26T14:34:08;3.10;;;1.35;;
11422;SDS011;5768;51.476;7.210;2023-06-26T14:39:12;1.30;;;1.20;;
11422;SDS011;5768;51.476;7.210;2023-06-26T14:44:14;2.85;;;1.45;;
11422;SDS011;5768;51.476;7.210;2023-06-26T14:49:17;1.35;;;1.17;;
11422;SDS011;5768;51.476;7.210;2023-06-26T14:54:21;2.08;;;1.20;;
11422;SDS011;5768;51.476;7.210;2023-06-26T14:59:24;2.75;;;1.13;;
11422;SDS011;5768;51.476;7.210;2023-06-26T15:04:26;1.70;;;1.25;;
11422;SDS011;5768;51.476;7.210;2023-06-26T15:09:30;1.90;;;1.60;;
11422;SDS011;5768;51.476;7.210;2023-06-26T15:14:32;2.08;;;1.30;;
11422;SDS011;5768;51.476;7.210;2023-06-26T15:19:34;1.48;;;1.10;;
11422;SDS011;5768;51.476;7.210;2023-06-26T15:24:39;3.13;;;1.10;;
11422;SDS011;5768;51.476;7.210;2023-06-26T15:29:41;1.58;;;1.10;;
11422;SDS011;5768;51.476;7.210;2023-06-26T15:34:45;2.35;;;1.65;;
11422;SDS011;5768;51.476;7.210;2023-06-26T15:39:50;6.28;;;1.40;;
11422;SDS011;5768;51.476;7.210;2023-06-26T15:44:52;2.65;;;1.17;;
11422;SDS011;5768;51.476;7.210;2023-06-26T15:49:54;2.97;;;1.63;;
11422;SDS011;5768;51.476;7.210;2023-06-26T15:54:58;3.95;;;1.60;;
11422;SDS011;5768;51.476;7.210;2023-06-26T16:00:00;3.67;;;1.38;;
11422;SDS011;5768;51.476;7.210;2023-06-26T16:05:04;2.50;;;1.55;;
11422;SDS011;5768;51.476;7.210;2023-06-26T16:10:09;0.98;;;0.98;;
11422;SDS011;5768;51.476;7.210;2023-06-26T16:15:11;3.88;;;1.20;;
11422;SDS011;5768;51.476;7.210;2023-06-26T16:20:14;4.43;;;1.42;;
11422;SDS011;5768;51.476;7.210;2023-06-26T16:25:18;2.97;;;1.35;;
11422;SDS011;5768;51.476;7.210;2023-06-26T16:30:20;1.95;;;1.40;;
11422;SDS011;5768;51.476;7.210;2023-06-26T16:35:23;2.05;;;1.30;;
11422;SDS011;5768;51.476;7.210;2023-06-26T16:40:28;1.55;;;1.08;;
11422;SDS011;5768;51.476;7.210;2023-06-26T16:45:30;4.43;;;1.20;;
11422;SDS011;5768;51.476;7.210;2023-06-26T16:50:32;1.52;;;1.33;;
11422;SDS011;5768;51.476;7.210;2023-06-26T16:55:36;1.42;;;1.10;;
11422;SDS011;5768;51.476;7.210;2023-06-26T17:00:38;1.60;;;1.20;;
11422;SDS011;5768;51.476;7.210;2023-06-26T17:05:41;2.45;;;1.30;;
11422;SDS011;5768;51.476;7.210;2023-06-26T17:10:44;1.38;;;1.27;;
11422;SDS011;5768;51.476;7.210;2023-06-26T17:15:46;1.95;;;0.98;;
11422;SDS011;5768;51.476;7.210;2023-06-26T17:20:49;1.60;;;1.10;;
11422;SDS011;5768;51.476;7.210;2023-06-26T17:25:53;3.38;;;1.40;;
11422;SDS011;5768;51.476;7.210;2023-06-26T17:30:57;1.55;;;1.30;;
11422;SDS011;5768;51.476;7.210;2023-06-26T17:35:59;2.13;;;1.40;;
11422;SDS011;5768;51.476;7.210;2023-06-26T17:41:04;1.40;;;1.30;;
11422;SDS011;5768;51.476;7.210;2023-06-26T17:46:06;2.60;;;1.50;;
11422;SDS011;5768;51.476;7.210;2023-06-26T17:51:09;2.95;;;1.50;;
11422;SDS011;5768;51.476;7.210;2023-06-26T17:56:12;1.55;;;1.10;;
11422;SDS011;5768;51.476;7.210;2023-06-26T18:01:14;3.60;;;1.50;;
11422;SDS011;5768;51.476;7.210;2023-06-26T18:06:17;3.08;;;1.35;;
11422;SDS011;5768;51.476;7.210;2023-06-26T18:11:20;2.03;;;1.35;;
11422;SDS011;5768;51.476;7.210;2023-06-26T18:16:23;2.20;;;1.70;;
11422;SDS011;5768;51.476;7.210;2023-06-26T18:21:25;2.08;;;1.30;;
11422;SDS011;5768;51.476;7.210;2023-06-26T18:26:29;1.50;;;1.25;;
11422;SDS011;5768;51.476;7.210;2023-06-26T18:31:32;2.28;;;1.13;;
11422;SDS011;5768;51.476;7.210;2023-06-26T18:36:35;1.52;;;1.35;;
11422;SDS011;5768;51.476;7.210;2023-06-26T18:41:39;1.05;;;0.95;;
11422;SDS011;5768;51.476;7.210;2023-06-26T18:46:42;0.93;;;0.93;;
11422;SDS011;5768;51.476;7.210;2023-06-26T18:51:44;1.73;;;1.38;;
11422;SDS011;5768;51.476;7.210;2023-06-26T18:56:47;2.17;;;1.40;;
11422;SDS011;5768;51.476;7.210;2023-06-26T19:01:50;2.25;;;1.10;;
11422;SDS011;5768;51.476;7.210;2023-06-26T19:06:52;1.45;;;1.10;;
11422;SDS011;5768;51.476;7.210;2023-06-26T19:11:56;1.58;;;1.35;;
11422;SDS011;5768;51.476;7.210;2023-06-26T19:16:58;3.47;;;1.10;;
11422;SDS011;5768;51.476;7.210;2023-06-26T19:22:00;2.10;;;1.10;;
11422;SDS011;5768;51.476;7.210;2023-06-26T19:27:04;1.35;;;1.10;;
11422;SDS011;5768;51.476;7.210;2023-06-26T19:32:07;2.22;;;1.25;;
11422;SDS011;5768;51.476;7.210;2023-06-26T19:37:09;1.52;;;1.20;;
11422;SDS011;5768;51.476;7.210;2023-06-26T19:42:13;3.03;;;1.35;;
11422;SDS011;5768;51.476;7.210;2023-06-26T19:47:15;2.08;;;1.30;;
11422;SDS011;5768;51.476;7.210;2023-06-26T19:52:18;2.70;;;1.42;;
11422;SDS011;5768;51.476;7.210;2023-06-26T19:57:21;3.17;;;1.48;;
11422;SDS011;5768;51.476;7.210;2023-06-26T20:02:24;2.15;;;1.58;;
11422;SDS011;5768;51.476;7.210;2023-06-26T20:07:26;2.15;;;1.30;;
11422;SDS011;5768;51.476;7.210;2023-06-26T20:12:29;2.28;;;1.55;;
11422;SDS011;5768;51.476;7.210;2023-06-26T20:17:32;2.63;;;1.58;;
11422;SDS011;5768;51.476;7.210;2023-06-26T20:22:34;3.10;;;1.50;;
11422;SDS011;5768;51.476;7.210;2023-06-26T20:27:37;3.38;;;1.40;;
11422;SDS011;5768;51.476;7.210;2023-06-26T20:32:40;2.65;;;1.58;;
11422;SDS011;5768;51.476;7.210;2023-06-26T20:37:42;1.48;;;1.23;;
11422;SDS011;5768;51.476;7.210;2023-06-26T20:42:46;2.03;;;1.60;;
11422;SDS011;5768;51.476;7.210;2023-06-26T20:47:49;1.60;;;1.50;;
11422;SDS011;5768;51.476;7.210;2023-06-26T20:52:52;3.33;;;1.70;;
11422;SDS011;5768;51.476;7.210;2023-06-26T20:57:58;3.03;;;1.60;;
11422;SDS011;5768;51.476;7.210;2023-06-26T21:03:00;5.10;;;2.10;;
11422;SDS011;5768;51.476;7.210;2023-06-26T21:08:02;2.10;;;1.70;;
11422;SDS011;5768;51.476;7.210;2023-06-26T21:13:09;2.10;;;1.50;;
11422;SDS011;5768;51.476;7.210;2023-06-26T21:18:14;3.42;;;1.77;;
11422;SDS011;5768;51.476;7.210;2023-06-26T21:23:17;3.42;;;2.05;;
11422;SDS011;5768;51.476;7.210;2023-06-26T21:28:21;3.50;;;1.88;;
11422;SDS011;5768;51.476;7.210;2023-06-26T21:33:25;2.78;;;1.83;;
11422;SDS011;5768;51.476;7.210;2023-06-26T21:38:27;4.13;;;2.42;;
11422;SDS011;5768;51.476;7.210;2023-06-26T21:43:31;3.22;;;2.00;;
11422;SDS011;5768;51.476;7.210;2023-06-26T21:48:33;4.30;;;2.10;;
11422;SDS011;5768;51.476;7.210;2023-06-26T21:53:36;4.78;;;1.92;;
11422;SDS011;5768;51.476;7.210;2023-06-26T21:58:40;3.00;;;1.73;;
11422;SDS011;5768;51.476;7.210;2023-06-26T22:03:42;3.35;;;1.60;;
11422;SDS011;5768;51.476;7.210;2023-06-26T22:08:44;4.88;;;1.90;;
11422;SDS011;5768;51.476;7.210;2023-06-26T22:13:48;2.75;;;1.73;;
11422;SDS011;5768;51.476;7.210;2023-06-26T22:18:50;2.85;;;1.90;;
11422;SDS011;5768;51.476;7.210;2023-06-26T22:23:53;2.45;;;1.73;;
11422;SDS011;5768;51.476;7.210;2023-06-26T22:28:57;3.28;;;1.95;;
11422;SDS011;5768;51.476;7.210;2023-06-26T22:33:59;3.83;;;1.90;;
11422;SDS011;5768;51.476;7.210;2023-06-26T22:39:01;4.03;;;2.20;;
11422;SDS011;5768;51.476;7.210;2023-06-26T22:44:06;2.25;;;1.70;;
11422;SDS011;5768;51.476;7.210;2023-06-26T22:49:08;8.95;;;1.95;;
11422;SDS011;5768;51.476;7.210;2023-06-26T22:54:12;2.30;;;2.00;;
11422;SDS011;5768;51.476;7.210;2023-06-26T22:59:15;2.72;;;1.90;;
11422;SDS011;5768;51.476;7.210;2023-06-26T23:04:18;1.85;;;1.75;;
11422;SDS011;5768;51.476;7.210;2023-06-26T23:09:22;3.42;;;2.10;;
11422;SDS011;5768;51.476;7.210;2023-06-26T23:14:26;4.00;;;2.20;;
11422;SDS011;5768;51.476;7.210;2023-06-26T23:19:28;3.22;;;2.38;;
11422;SDS011;5768;51.476;7.210;2023-06-26T23:24:31;5.43;;;2.50;;
11422;SDS011;5768;51.476;7.210;2023-06-26T23:29:35;5.28;;;2.53;;
11422;SDS011;5768;51.476;7.210;2023-06-26T23:34:38;4.47;;;2.15;;
11422;SDS011;5768;51.476;7.210;2023-06-26T23:39:41;3.08;;;2.15;;
11422;SDS011;5768;51.476;7.210;2023-06-26T23:44:45;5.80;;;2.50;;
11422;SDS011;5768;51.476;7.210;2023-06-26T23:49:49;7.10;;;2.88;;
11422;SDS011;5768;51.476;7.210;2023-06-26T23:54:51;4.30;;;2.42;;
11422;SDS011;5768;51.476;7.210;2023-06-26T23:59:55;5.28;;;2.60;;
